Houser Cow Camp, CO

8:12 PM MST on January 22, 2017 (GMT -0700)
MCPSC2 | | Change Station
Active Advisory: Winter Storm Warning Active Notice: Public Information Statement

Elev 9397 ft 38.42 °N, 108.38 °W | Updated 2 days ago

Snow
Snow
25.0 °F
Feels Like 25.0 °F
N
-
Wind Variable Wind from North

Today
High -- | Low -- °F
--% Chance of Precip.
Yesterday
High -- | Low -- °F
Precip. -- in
Pressure 30.02 in
Visibility 5.0 miles
Clouds Scattered Clouds 1700 ft
Overcast 2600 ft
Dew Point Not available.
Humidity Not available.
Rainfall 0.12 in
Snow Depth Not available.
7:25 AM 5:24 PM
Waning Crescent, 22% visible
METAR KTEX 222235Z AUTO 14007KT 110V180 5SM HZ SCT017 OVC026 M03/M10 A3002 RMK AO2 T10341097
Pressure 30.02 in
Visibility 5.0 miles
Clouds Scattered Clouds 1700 ft
Overcast 2600 ft
Dew Point Not available.
Humidity Not available.
Rainfall 0.12 in
Snow Depth Not available.
7:25 AM 5:24 PM
Waning Crescent, 22% visible
METAR KTEX 222235Z AUTO 14007KT 110V180 5SM HZ SCT017 OVC026 M03/M10 A3002 RMK AO2 T10341097

Get Your Daily Forecast Email!

Thanks for signing up!

Be on the lookout for a verification email in your inbox.

You'll start receiving the daily forecast at 8 AM.

×

10-Day Weather Forecast

Almanac

Astronomy

Jan. 22, 2017 Rise Set
Actual Time
Civil Twilight
Nautical Twilight
Astronomical Twilight
Moon
Length of Visible Light
Length of Day
Tomorrow will be .
, % of the Moon is Illuminated

Today's Extremes

State Highs State Lows

Community

WunderPhotos

Upload Photos

1,962,540 photos uploaded!

WunderBlog® & News

Nearby

Air Quality

  Air Quality AQ Index Pollutant
Not available.

Snow Depth

Station Depth Elevation

Earthquake Activity

City Distance Mag. Time & Date
Minimum magnitude displayed is 2.5.

Coastal Water Temperatures

Place Temperature

Stations

Nearby Weather Stations

Station Location Temp. Windchill Dew Point Humidity Wind Precip. Elev Updated Type
                   

Watches & Warnings

Winter Storm Warning
Issued: 2:40 PM MST Jan. 22, 2017 – National Weather Service

... Winter Storm Warning remains in effect from 6 PM this evening
to 9 am MST Tuesday...

* locations include the cities of... Crested Butte... Taylor
Park... Marble... Ridgway... Glade Park... Telluride... Ouray...
Lake city... Silverton... Rico... Hesperus.

* Timing... snow will redevelop this evening and continue through
early Tuesday morning.

* Snow accumulation... 10 to 20 inches with up to 2 feet on
southwest-facing slopes.

* Winds... southwest 15 to 25 mph with gusts up to 50 mph.

* Impacts... mountain roadways will become snow packed with
winter driving conditions continuing through the middle of the
week. Visibilities will be reduced to under a half mile at
times during the heaviest snowfall.

Precautionary/preparedness actions...

A Winter Storm Warning means significant amounts of snow are
expected or occurring. Strong winds and blowing snow are also
possible. This will make travel very hazardous or impossible.